sensor_id;sensor_type;location;lat;lon;timestamp;pressure;altitude;pressure_sealevel;temperature;humidity
78121;BME280;67585;44.802;10.332;2024-02-15T00:00:37;101950.72;;;9.74;62.84
78121;BME280;67585;44.802;10.332;2024-02-15T00:03:03;101963.28;;;10.05;63.03
78121;BME280;67585;44.802;10.332;2024-02-15T00:05:32;101947.19;;;9.99;62.63
78121;BME280;67585;44.802;10.332;2024-02-15T00:07:57;101943.88;;;9.78;62.67
78121;BME280;67585;44.802;10.332;2024-02-15T00:10:22;101917.53;;;9.80;61.88
78121;BME280;67585;44.802;10.332;2024-02-15T00:12:50;101946.38;;;9.98;62.30
78121;BME280;67585;44.802;10.332;2024-02-15T00:15:16;101915.28;;;9.77;61.46
78121;BME280;67585;44.802;10.332;2024-02-15T00:17:41;101924.56;;;9.81;62.03
78121;BME280;67585;44.802;10.332;2024-02-15T00:20:07;101913.72;;;9.70;62.31
78121;BME280;67585;44.802;10.332;2024-02-15T00:22:34;101945.00;;;9.89;62.13
78121;BME280;67585;44.802;10.332;2024-02-15T00:25:00;101934.78;;;9.73;63.36
78121;BME280;67585;44.802;10.332;2024-02-15T00:27:25;101901.16;;;9.38;63.31
78121;BME280;67585;44.802;10.332;2024-02-15T00:29:50;101927.63;;;9.67;62.34
78121;BME280;67585;44.802;10.332;2024-02-15T00:32:16;101905.09;;;9.61;62.82
78121;BME280;67585;44.802;10.332;2024-02-15T00:34:41;101922.94;;;9.55;63.13
78121;BME280;67585;44.802;10.332;2024-02-15T00:37:06;101902.41;;;9.61;62.98
78121;BME280;67585;44.802;10.332;2024-02-15T00:39:32;101895.19;;;9.61;62.68
78121;BME280;67585;44.802;10.332;2024-02-15T00:41:58;101924.56;;;9.81;64.43
78121;BME280;67585;44.802;10.332;2024-02-15T00:44:28;101925.03;;;9.78;65.06
78121;BME280;67585;44.802;10.332;2024-02-15T00:46:53;101914.19;;;9.85;63.79
78121;BME280;67585;44.802;10.332;2024-02-15T00:49:18;101896.34;;;9.66;63.50
78121;BME280;67585;44.802;10.332;2024-02-15T00:51:47;101892.69;;;10.03;63.39
78121;BME280;67585;44.802;10.332;2024-02-15T00:54:12;101898.63;;;9.87;63.16
78121;BME280;67585;44.802;10.332;2024-02-15T00:56:38;101912.56;;;9.59;63.27
78121;BME280;67585;44.802;10.332;2024-02-15T00:59:03;101907.88;;;9.73;63.33
78121;BME280;67585;44.802;10.332;2024-02-15T01:01:30;101915.28;;;9.59;63.37
78121;BME280;67585;44.802;10.332;2024-02-15T01:03:55;101901.56;;;9.60;63.06
78121;BME280;67585;44.802;10.332;2024-02-15T01:06:21;101896.66;;;9.57;62.70
78121;BME280;67585;44.802;10.332;2024-02-15T01:08:47;101909.63;;;9.42;64.02
78121;BME280;67585;44.802;10.332;2024-02-15T01:11:12;101906.63;;;9.50;64.03
78121;BME280;67585;44.802;10.332;2024-02-15T01:13:39;101908.50;;;9.75;63.62
78121;BME280;67585;44.802;10.332;2024-02-15T01:16:04;101921.34;;;9.73;62.93
78121;BME280;67585;44.802;10.332;2024-02-15T01:18:30;101920.06;;;9.75;63.04
78121;BME280;67585;44.802;10.332;2024-02-15T01:20:57;101908.94;;;9.72;63.13
78121;BME280;67585;44.802;10.332;2024-02-15T01:23:22;101905.38;;;9.53;63.05
78121;BME280;67585;44.802;10.332;2024-02-15T01:25:48;101861.97;;;9.24;63.54
78121;BME280;67585;44.802;10.332;2024-02-15T01:28:13;101902.19;;;9.37;63.89
78121;BME280;67585;44.802;10.332;2024-02-15T01:30:39;101903.06;;;9.31;63.33
78121;BME280;67585;44.802;10.332;2024-02-15T01:33:05;101877.28;;;9.24;63.76
78121;BME280;67585;44.802;10.332;2024-02-15T01:35:30;101904.25;;;9.42;63.64
78121;BME280;67585;44.802;10.332;2024-02-15T01:37:56;101902.97;;;9.45;63.62
78121;BME280;67585;44.802;10.332;2024-02-15T01:40:21;101882.44;;;9.25;64.46
78121;BME280;67585;44.802;10.332;2024-02-15T01:42:47;101877.09;;;9.18;63.89
78121;BME280;67585;44.802;10.332;2024-02-15T01:45:15;101901.09;;;9.20;64.20
78121;BME280;67585;44.802;10.332;2024-02-15T01:47:41;101910.41;;;9.17;63.93
78121;BME280;67585;44.802;10.332;2024-02-15T01:50:10;101913.75;;;9.13;64.20
78121;BME280;67585;44.802;10.332;2024-02-15T01:52:37;101890.03;;;8.71;64.73
78121;BME280;67585;44.802;10.332;2024-02-15T01:55:04;101896.00;;;8.73;65.65
78121;BME280;67585;44.802;10.332;2024-02-15T01:57:35;101912.88;;;8.87;65.23
78121;BME280;67585;44.802;10.332;2024-02-15T02:00:00;101908.09;;;8.89;65.21
78121;BME280;67585;44.802;10.332;2024-02-15T02:02:31;101890.16;;;9.15;65.17
78121;BME280;67585;44.802;10.332;2024-02-15T02:04:58;101905.88;;;9.18;64.82
78121;BME280;67585;44.802;10.332;2024-02-15T02:07:23;101900.78;;;9.35;64.26
78121;BME280;67585;44.802;10.332;2024-02-15T02:09:48;101919.22;;;9.56;64.45
78121;BME280;67585;44.802;10.332;2024-02-15T02:12:15;101919.16;;;9.38;64.93
78121;BME280;67585;44.802;10.332;2024-02-15T02:14:40;101922.41;;;9.15;65.38
78121;BME280;67585;44.802;10.332;2024-02-15T02:17:15;101911.66;;;9.15;64.71
78121;BME280;67585;44.802;10.332;2024-02-15T02:19:44;101911.38;;;9.30;64.72
78121;BME280;67585;44.802;10.332;2024-02-15T02:22:09;101889.28;;;8.89;65.62
78121;BME280;67585;44.802;10.332;2024-02-15T02:27:23;101923.66;;;9.12;65.58
78121;BME280;67585;44.802;10.332;2024-02-15T02:29:48;101895.72;;;9.20;65.65
78121;BME280;67585;44.802;10.332;2024-02-15T02:32:14;101922.22;;;9.41;65.91
78121;BME280;67585;44.802;10.332;2024-02-15T02:34:39;101910.75;;;9.28;65.55
78121;BME280;67585;44.802;10.332;2024-02-15T02:37:06;101915.69;;;9.31;65.58
78121;BME280;67585;44.802;10.332;2024-02-15T02:39:33;101922.81;;;9.18;66.03
78121;BME280;67585;44.802;10.332;2024-02-15T02:41:59;101905.72;;;9.06;66.38
78121;BME280;67585;44.802;10.332;2024-02-15T02:44:24;101908.56;;;9.18;66.58
78121;BME280;67585;44.802;10.332;2024-02-15T02:46:49;101920.00;;;9.07;66.69
78121;BME280;67585;44.802;10.332;2024-02-15T02:49:15;101927.13;;;9.19;66.94
78121;BME280;67585;44.802;10.332;2024-02-15T02:51:40;101906.28;;;9.15;66.94
78121;BME280;67585;44.802;10.332;2024-02-15T02:54:06;101915.38;;;9.14;67.31
78121;BME280;67585;44.802;10.332;2024-02-15T02:56:32;101902.13;;;8.87;66.96
78121;BME280;67585;44.802;10.332;2024-02-15T02:58:58;101919.97;;;8.75;68.26
78121;BME280;67585;44.802;10.332;2024-02-15T03:01:24;101889.25;;;8.58;67.94
78121;BME280;67585;44.802;10.332;2024-02-15T03:03:51;101865.72;;;8.60;68.04
78121;BME280;67585;44.802;10.332;2024-02-15T03:06:17;101901.94;;;8.82;67.83
78121;BME280;67585;44.802;10.332;2024-02-15T03:08:42;101921.06;;;8.99;67.09
78121;BME280;67585;44.802;10.332;2024-02-15T03:11:09;101896.41;;;8.77;67.72
78121;BME280;67585;44.802;10.332;2024-02-15T03:13:34;101885.94;;;8.62;68.03
78121;BME280;67585;44.802;10.332;2024-02-15T03:16:00;101910.81;;;8.83;68.17
78121;BME280;67585;44.802;10.332;2024-02-15T03:18:26;101816.44;;;8.34;67.45
78121;BME280;67585;44.802;10.332;2024-02-15T03:20:51;101885.16;;;8.48;68.00
78121;BME280;67585;44.802;10.332;2024-02-15T03:23:16;101913.03;;;8.54;68.09
78121;BME280;67585;44.802;10.332;2024-02-15T03:25:42;101894.47;;;8.39;68.85
78121;BME280;67585;44.802;10.332;2024-02-15T03:28:08;101881.25;;;8.44;68.51
78121;BME280;67585;44.802;10.332;2024-02-15T03:30:33;101906.28;;;8.45;68.19
78121;BME280;67585;44.802;10.332;2024-02-15T03:33:00;101908.25;;;8.63;68.32
78121;BME280;67585;44.802;10.332;2024-02-15T03:35:26;101906.06;;;8.40;69.02
78121;BME280;67585;44.802;10.332;2024-02-15T03:37:53;101901.72;;;8.45;69.02
78121;BME280;67585;44.802;10.332;2024-02-15T03:40:20;101897.97;;;8.53;68.65
78121;BME280;67585;44.802;10.332;2024-02-15T03:42:46;101854.38;;;8.51;67.67
78121;BME280;67585;44.802;10.332;2024-02-15T03:45:17;101878.97;;;8.48;68.11
78121;BME280;67585;44.802;10.332;2024-02-15T03:47:42;101899.75;;;8.66;68.39
78121;BME280;67585;44.802;10.332;2024-02-15T03:50:08;101899.53;;;8.74;67.65
78121;BME280;67585;44.802;10.332;2024-02-15T03:52:40;101902.22;;;8.67;67.66
78121;BME280;67585;44.802;10.332;2024-02-15T03:55:07;101892.56;;;8.60;68.40
78121;BME280;67585;44.802;10.332;2024-02-15T03:57:33;101900.16;;;8.69;67.69
78121;BME280;67585;44.802;10.332;2024-02-15T03:59:59;101894.03;;;8.49;67.93
78121;BME280;67585;44.802;10.332;2024-02-15T04:02:25;101906.34;;;8.70;68.44
78121;BME280;67585;44.802;10.332;2024-02-15T04:04:55;101895.66;;;8.56;68.69
78121;BME280;67585;44.802;10.332;2024-02-15T04:07:22;101894.16;;;8.74;67.63
78121;BME280;67585;44.802;10.332;2024-02-15T04:09:48;101878.91;;;8.61;67.79
78121;BME280;67585;44.802;10.332;2024-02-15T04:12:14;101891.25;;;8.69;68.58
78121;BME280;67585;44.802;10.332;2024-02-15T04:14:40;101874.97;;;8.64;68.06
78121;BME280;67585;44.802;10.332;2024-02-15T04:17:06;101878.09;;;8.61;67.21
78121;BME280;67585;44.802;10.332;2024-02-15T04:19:32;101892.31;;;8.68;67.30
78121;BME280;67585;44.802;10.332;2024-02-15T04:21:57;101873.72;;;8.66;67.71
78121;BME280;67585;44.802;10.332;2024-02-15T04:24:23;101904.22;;;8.78;67.49
78121;BME280;67585;44.802;10.332;2024-02-15T04:26:49;101876.28;;;8.54;67.96
78121;BME280;67585;44.802;10.332;2024-02-15T04:29:15;101893.34;;;8.67;67.32
78121;BME280;67585;44.802;10.332;2024-02-15T04:31:41;101892.56;;;8.60;68.62
78121;BME280;67585;44.802;10.332;2024-02-15T04:34:08;101898.28;;;8.70;68.55
78121;BME280;67585;44.802;10.332;2024-02-15T04:36:34;101865.84;;;8.71;67.03
78121;BME280;67585;44.802;10.332;2024-02-15T04:39:00;101873.34;;;8.56;67.69
78121;BME280;67585;44.802;10.332;2024-02-15T04:41:29;101879.19;;;8.46;68.04
78121;BME280;67585;44.802;10.332;2024-02-15T04:43:54;101888.50;;;8.44;68.19
78121;BME280;67585;44.802;10.332;2024-02-15T04:46:20;101898.19;;;8.38;68.33
78121;BME280;67585;44.802;10.332;2024-02-15T04:48:50;101902.34;;;8.47;68.80
78121;BME280;67585;44.802;10.332;2024-02-15T04:51:16;101902.41;;;8.21;69.48
78121;BME280;67585;44.802;10.332;2024-02-15T04:53:42;101901.28;;;8.48;68.93
78121;BME280;67585;44.802;10.332;2024-02-15T04:56:08;101864.56;;;8.29;68.42
78121;BME280;67585;44.802;10.332;2024-02-15T04:58:40;101869.50;;;8.32;68.51
78121;BME280;67585;44.802;10.332;2024-02-15T05:01:15;101886.78;;;8.56;68.59
78121;BME280;67585;44.802;10.332;2024-02-15T05:03:42;101877.97;;;8.35;68.73
78121;BME280;67585;44.802;10.332;2024-02-15T05:06:07;101882.47;;;8.55;67.70
78121;BME280;67585;44.802;10.332;2024-02-15T05:08:34;101863.88;;;8.47;67.93
78121;BME280;67585;44.802;10.332;2024-02-15T05:11:10;101887.34;;;8.71;67.38
78121;BME280;67585;44.802;10.332;2024-02-15T05:13:45;101889.13;;;8.84;67.39
78121;BME280;67585;44.802;10.332;2024-02-15T05:16:11;101835.22;;;8.41;67.72
78121;BME280;67585;44.802;10.332;2024-02-15T05:18:37;101873.94;;;8.65;67.46
78121;BME280;67585;44.802;10.332;2024-02-15T05:21:05;101887.59;;;8.56;67.86
78121;BME280;67585;44.802;10.332;2024-02-15T05:23:35;101872.53;;;8.55;67.93
78121;BME280;67585;44.802;10.332;2024-02-15T05:26:01;101890.94;;;8.52;68.37
78121;BME280;67585;44.802;10.332;2024-02-15T05:28:28;101864.94;;;8.32;68.11
78121;BME280;67585;44.802;10.332;2024-02-15T05:31:12;101870.75;;;8.29;68.36
78121;BME280;67585;44.802;10.332;2024-02-15T05:33:40;101878.19;;;8.41;68.38
78121;BME280;67585;44.802;10.332;2024-02-15T05:36:12;101879.44;;;8.25;68.49
78121;BME280;67585;44.802;10.332;2024-02-15T05:38:38;101873.25;;;8.24;68.86
78121;BME280;67585;44.802;10.332;2024-02-15T05:41:04;101882.47;;;8.55;68.33
78121;BME280;67585;44.802;10.332;2024-02-15T05:43:29;101885.16;;;8.48;68.98
78121;BME280;67585;44.802;10.332;2024-02-15T05:45:55;101847.84;;;8.27;68.26
78121;BME280;67585;44.802;10.332;2024-02-15T05:48:26;101889.09;;;8.46;68.07
78121;BME280;67585;44.802;10.332;2024-02-15T05:50:54;101868.41;;;8.53;68.38
78121;BME280;67585;44.802;10.332;2024-02-15T05:53:19;101885.47;;;8.72;67.31
78121;BME280;67585;44.802;10.332;2024-02-15T05:55:45;101859.28;;;8.09;68.53
78121;BME280;67585;44.802;10.332;2024-02-15T05:58:10;101853.56;;;7.85;68.84
78121;BME280;67585;44.802;10.332;2024-02-15T06:00:37;101884.25;;;8.16;69.38
78121;BME280;67585;44.802;10.332;2024-02-15T06:03:04;101865.81;;;8.26;68.49
78121;BME280;67585;44.802;10.332;2024-02-15T06:05:31;101866.00;;;8.31;68.44
78121;BME280;67585;44.802;10.332;2024-02-15T06:07:57;101872.25;;;8.25;68.17
78121;BME280;67585;44.802;10.332;2024-02-15T06:10:24;101872.81;;;8.34;68.43
78121;BME280;67585;44.802;10.332;2024-02-15T06:12:50;101880.25;;;8.32;68.71
78121;BME280;67585;44.802;10.332;2024-02-15T06:15:16;101893.25;;;8.35;68.81
78121;BME280;67585;44.802;10.332;2024-02-15T06:17:42;101892.00;;;8.38;68.05
78121;BME280;67585;44.802;10.332;2024-02-15T06:20:14;101866.03;;;8.25;68.04
78121;BME280;67585;44.802;10.332;2024-02-15T06:22:43;101895.28;;;8.46;67.92
78121;BME280;67585;44.802;10.332;2024-02-15T06:25:08;101889.78;;;8.80;69.21
78121;BME280;67585;44.802;10.332;2024-02-15T06:27:37;101872.72;;;8.61;68.46
78121;BME280;67585;44.802;10.332;2024-02-15T06:30:07;101853.78;;;8.42;67.99
78121;BME280;67585;44.802;10.332;2024-02-15T06:32:51;101881.59;;;8.61;68.44
78121;BME280;67585;44.802;10.332;2024-02-15T06:35:35;101902.13;;;8.42;68.41
78121;BME280;67585;44.802;10.332;2024-02-15T06:38:19;101892.88;;;8.76;68.11
78121;BME280;67585;44.802;10.332;2024-02-15T06:41:03;101892.69;;;8.20;68.60
78121;BME280;67585;44.802;10.332;2024-02-15T06:43:29;101883.53;;;8.47;69.22
78121;BME280;67585;44.802;10.332;2024-02-15T06:45:55;101886.81;;;8.49;68.16
78121;BME280;67585;44.802;10.332;2024-02-15T06:48:20;101893.91;;;8.30;67.53
78121;BME280;67585;44.802;10.332;2024-02-15T06:50:49;101908.75;;;8.40;68.45
78121;BME280;67585;44.802;10.332;2024-02-15T06:53:14;101901.34;;;8.28;67.92
78121;BME280;67585;44.802;10.332;2024-02-15T06:55:40;101921.13;;;8.47;67.67
78121;BME280;67585;44.802;10.332;2024-02-15T06:58:05;101906.88;;;8.33;67.72
78121;BME280;67585;44.802;10.332;2024-02-15T07:00:31;101897.41;;;8.31;67.54
78121;BME280;67585;44.802;10.332;2024-02-15T07:02:57;101901.53;;;8.40;67.14
78121;BME280;67585;44.802;10.332;2024-02-15T07:05:22;101919.25;;;8.34;67.85
78121;BME280;67585;44.802;10.332;2024-02-15T07:07:49;101914.88;;;8.53;67.91
78121;BME280;67585;44.802;10.332;2024-02-15T07:10:14;101909.38;;;8.35;68.02
78121;BME280;67585;44.802;10.332;2024-02-15T07:12:41;101903.34;;;8.46;67.16
78121;BME280;67585;44.802;10.332;2024-02-15T07:15:09;101928.31;;;8.53;67.82
78121;BME280;67585;44.802;10.332;2024-02-15T07:17:35;101906.03;;;8.46;67.23
78121;BME280;67585;44.802;10.332;2024-02-15T07:20:02;101925.72;;;8.78;67.44
78121;BME280;67585;44.802;10.332;2024-02-15T07:22:30;101922.75;;;8.55;66.99
78121;BME280;67585;44.802;10.332;2024-02-15T07:24:57;101907.50;;;8.42;66.92
78121;BME280;67585;44.802;10.332;2024-02-15T07:27:22;101933.13;;;8.45;67.09
78121;BME280;67585;44.802;10.332;2024-02-15T07:29:50;101945.47;;;8.52;67.27
78121;BME280;67585;44.802;10.332;2024-02-15T07:32:16;101924.00;;;8.39;67.53
78121;BME280;67585;44.802;10.332;2024-02-15T07:34:42;101947.56;;;8.50;67.86
78121;BME280;67585;44.802;10.332;2024-02-15T07:37:09;101943.16;;;8.63;68.54
78121;BME280;67585;44.802;10.332;2024-02-15T07:39:36;101947.22;;;8.78;67.91
78121;BME280;67585;44.802;10.332;2024-02-15T07:42:01;101959.72;;;8.98;67.66
78121;BME280;67585;44.802;10.332;2024-02-15T07:44:30;101951.72;;;9.23;67.06
78121;BME280;67585;44.802;10.332;2024-02-15T07:46:58;101941.03;;;9.10;67.08
78121;BME280;67585;44.802;10.332;2024-02-15T07:49:26;101963.59;;;9.40;66.43
78121;BME280;67585;44.802;10.332;2024-02-15T07:51:51;101932.56;;;9.13;66.23
78121;BME280;67585;44.802;10.332;2024-02-15T07:54:20;101958.69;;;9.37;66.99
78121;BME280;67585;44.802;10.332;2024-02-15T07:56:49;101941.44;;;9.95;65.52
78121;BME280;67585;44.802;10.332;2024-02-15T07:59:15;101929.56;;;10.03;63.92
78121;BME280;67585;44.802;10.332;2024-02-15T08:01:44;101948.50;;;10.15;63.73
78121;BME280;67585;44.802;10.332;2024-02-15T08:04:15;101954.44;;;10.42;63.39
78121;BME280;67585;44.802;10.332;2024-02-15T08:06:41;101949.69;;;10.74;62.74
78121;BME280;67585;44.802;10.332;2024-02-15T08:09:07;101920.03;;;10.74;61.50
78121;BME280;67585;44.802;10.332;2024-02-15T08:11:32;101938.38;;;11.26;60.16
78121;BME280;67585;44.802;10.332;2024-02-15T08:13:58;101915.22;;;11.48;58.98
78121;BME280;67585;44.802;10.332;2024-02-15T08:16:26;101931.78;;;11.75;57.44
78121;BME280;67585;44.802;10.332;2024-02-15T08:18:54;101931.69;;;12.06;56.68
78121;BME280;67585;44.802;10.332;2024-02-15T08:21:31;101908.06;;;11.77;56.27
78121;BME280;67585;44.802;10.332;2024-02-15T08:24:03;101925.09;;;11.78;57.58
78121;BME280;67585;44.802;10.332;2024-02-15T08:28:57;101919.69;;;11.66;57.22
78121;BME280;67585;44.802;10.332;2024-02-15T08:31:23;101915.84;;;12.09;56.41
78121;BME280;67585;44.802;10.332;2024-02-15T08:33:50;101938.47;;;11.85;57.08
78121;BME280;67585;44.802;10.332;2024-02-15T08:36:15;101919.16;;;12.40;55.69
78121;BME280;67585;44.802;10.332;2024-02-15T08:38:41;101911.13;;;11.81;56.02
78121;BME280;67585;44.802;10.332;2024-02-15T08:41:06;101941.69;;;12.57;55.72
78121;BME280;67585;44.802;10.332;2024-02-15T08:43:33;101919.94;;;12.52;55.03
78121;BME280;67585;44.802;10.332;2024-02-15T08:45:58;101941.94;;;13.13;53.41
78121;BME280;67585;44.802;10.332;2024-02-15T08:48:24;101942.25;;;13.29;52.86
78121;BME280;67585;44.802;10.332;2024-02-15T08:50:51;101933.88;;;13.01;54.00
78121;BME280;67585;44.802;10.332;2024-02-15T08:53:17;101926.09;;;13.05;53.68
78121;BME280;67585;44.802;10.332;2024-02-15T08:55:45;101934.13;;;13.29;53.74
78121;BME280;67585;44.802;10.332;2024-02-15T08:58:10;101923.06;;;13.30;53.04
78121;BME280;67585;44.802;10.332;2024-02-15T09:00:35;101917.66;;;13.30;53.43
78121;BME280;67585;44.802;10.332;2024-02-15T09:03:02;101923.81;;;13.14;54.10
78121;BME280;67585;44.802;10.332;2024-02-15T09:05:28;101939.47;;;13.40;54.33
78121;BME280;67585;44.802;10.332;2024-02-15T09:07:53;101939.78;;;13.61;53.78
78121;BME280;67585;44.802;10.332;2024-02-15T09:10:19;101924.78;;;13.70;53.28
78121;BME280;67585;44.802;10.332;2024-02-15T09:12:48;101932.25;;;13.63;53.31
78121;BME280;67585;44.802;10.332;2024-02-15T09:15:14;101928.72;;;13.45;53.98
78121;BME280;67585;44.802;10.332;2024-02-15T09:17:40;101937.72;;;13.34;55.13
78121;BME280;67585;44.802;10.332;2024-02-15T09:20:07;101936.91;;;14.23;53.30
78121;BME280;67585;44.802;10.332;2024-02-15T09:22:34;101931.00;;;13.71;53.95
78121;BME280;67585;44.802;10.332;2024-02-15T09:25:02;101930.00;;;13.94;55.01
78121;BME280;67585;44.802;10.332;2024-02-15T09:27:27;101932.38;;;13.90;53.95
78121;BME280;67585;44.802;10.332;2024-02-15T09:29:53;101922.44;;;14.35;53.27
78121;BME280;67585;44.802;10.332;2024-02-15T09:32:18;101926.66;;;13.86;53.63
78121;BME280;67585;44.802;10.332;2024-02-15T09:34:43;101927.94;;;14.62;52.96
78121;BME280;67585;44.802;10.332;2024-02-15T09:37:09;101925.19;;;15.11;50.79
78121;BME280;67585;44.802;10.332;2024-02-15T09:39:36;101931.53;;;14.94;51.06
78121;BME280;67585;44.802;10.332;2024-02-15T09:42:03;101922.38;;;15.01;51.17
78121;BME280;67585;44.802;10.332;2024-02-15T09:44:28;101922.38;;;15.01;51.25
78121;BME280;67585;44.802;10.332;2024-02-15T09:47:03;101911.44;;;15.23;50.77
78121;BME280;67585;44.802;10.332;2024-02-15T09:49:35;101912.53;;;14.94;51.30
78121;BME280;67585;44.802;10.332;2024-02-15T09:52:02;101858.00;;;14.64;51.55
78121;BME280;67585;44.802;10.332;2024-02-15T09:54:29;101925.75;;;15.13;51.50
78121;BME280;67585;44.802;10.332;2024-02-15T09:56:56;101902.59;;;14.78;52.17
78121;BME280;67585;44.802;10.332;2024-02-15T09:59:25;101911.00;;;15.04;51.73
78121;BME280;67585;44.802;10.332;2024-02-15T10:01:54;101923.34;;;15.49;51.32
78121;BME280;67585;44.802;10.332;2024-02-15T10:04:23;101899.16;;;15.15;52.09
78121;BME280;67585;44.802;10.332;2024-02-15T10:06:50;101901.56;;;15.44;51.46
78121;BME280;67585;44.802;10.332;2024-02-15T10:09:27;101901.59;;;15.16;52.19
78121;BME280;67585;44.802;10.332;2024-02-15T10:14:28;101890.59;;;14.47;53.36
78121;BME280;67585;44.802;10.332;2024-02-15T10:16:54;101886.09;;;14.58;53.89
78121;BME280;67585;44.802;10.332;2024-02-15T10:19:20;101908.97;;;15.21;52.96
78121;BME280;67585;44.802;10.332;2024-02-15T10:21:52;101900.94;;;15.69;51.59
78121;BME280;67585;44.802;10.332;2024-02-15T10:24:22;101899.13;;;15.42;52.43
78121;BME280;67585;44.802;10.332;2024-02-15T10:26:49;101885.84;;;15.13;52.55
78121;BME280;67585;44.802;10.332;2024-02-15T10:29:15;101901.78;;;15.37;52.94
78121;BME280;67585;44.802;10.332;2024-02-15T10:31:56;101902.50;;;15.22;53.52
78121;BME280;67585;44.802;10.332;2024-02-15T10:34:22;101909.38;;;15.35;53.89
78121;BME280;67585;44.802;10.332;2024-02-15T10:36:49;101888.91;;;15.22;54.00
78121;BME280;67585;44.802;10.332;2024-02-15T10:39:18;101887.28;;;14.94;54.12
78121;BME280;67585;44.802;10.332;2024-02-15T10:41:50;101899.47;;;15.88;52.66
78121;BME280;67585;44.802;10.332;2024-02-15T10:44:21;101897.72;;;15.72;52.58
78121;BME280;67585;44.802;10.332;2024-02-15T10:46:48;101896.47;;;15.90;52.19
78121;BME280;67585;44.802;10.332;2024-02-15T10:49:18;101877.97;;;15.87;52.43
78121;BME280;67585;44.802;10.332;2024-02-15T10:51:44;101893.94;;;15.41;53.03
78121;BME280;67585;44.802;10.332;2024-02-15T10:54:15;101888.88;;;15.17;54.48
78121;BME280;67585;44.802;10.332;2024-02-15T10:56:45;101881.38;;;16.14;52.40
78121;BME280;67585;44.802;10.332;2024-02-15T10:59:19;101874.28;;;16.08;51.45
78121;BME280;67585;44.802;10.332;2024-02-15T11:01:49;101866.66;;;16.05;51.29
78121;BME280;67585;44.802;10.332;2024-02-15T11:04:20;101873.19;;;16.09;51.87
78121;BME280;67585;44.802;10.332;2024-02-15T11:06:52;101869.66;;;16.09;51.89
78121;BME280;67585;44.802;10.332;2024-02-15T11:09:21;101868.06;;;16.18;51.43
78121;BME280;67585;44.802;10.332;2024-02-15T11:11:48;101866.56;;;15.90;51.58
78121;BME280;67585;44.802;10.332;2024-02-15T11:14:28;101857.72;;;16.15;50.42
78121;BME280;67585;44.802;10.332;2024-02-15T11:17:03;101857.44;;;16.16;50.71
78121;BME280;67585;44.802;10.332;2024-02-15T11:22:00;101851.31;;;15.78;52.37
78121;BME280;67585;44.802;10.332;2024-02-15T11:24:30;101840.09;;;16.22;52.11
78121;BME280;67585;44.802;10.332;2024-02-15T11:27:00;101814.34;;;16.56;50.55
78121;BME280;67585;44.802;10.332;2024-02-15T11:32:42;101833.34;;;16.45;50.82
78121;BME280;67585;44.802;10.332;2024-02-15T11:35:15;101824.56;;;16.13;51.12
78121;BME280;67585;44.802;10.332;2024-02-15T11:40:13;101805.78;;;16.11;51.17
78121;BME280;67585;44.802;10.332;2024-02-15T11:42:38;101802.59;;;16.45;51.07
78121;BME280;67585;44.802;10.332;2024-02-15T11:45:06;101816.00;;;15.84;51.78
78121;BME280;67585;44.802;10.332;2024-02-15T11:47:37;101814.78;;;16.12;52.07
78121;BME280;67585;44.802;10.332;2024-02-15T11:50:03;101808.44;;;15.96;52.04
78121;BME280;67585;44.802;10.332;2024-02-15T11:52:29;101792.59;;;15.72;52.21
78121;BME280;67585;44.802;10.332;2024-02-15T11:55:04;101783.13;;;15.37;53.33
78121;BME280;67585;44.802;10.332;2024-02-15T11:57:29;101788.00;;;14.93;54.33
78121;BME280;67585;44.802;10.332;2024-02-15T12:00:03;101769.47;;;14.85;54.66
78121;BME280;67585;44.802;10.332;2024-02-15T12:03:00;101770.66;;;14.99;53.85
78121;BME280;67585;44.802;10.332;2024-02-15T12:05:44;101792.50;;;16.15;51.78
78121;BME280;67585;44.802;10.332;2024-02-15T12:08:28;101782.19;;;16.37;50.44
78121;BME280;67585;44.802;10.332;2024-02-15T12:11:14;101771.06;;;16.39;50.18
78121;BME280;67585;44.802;10.332;2024-02-15T12:13:57;101784.94;;;16.48;49.82
78121;BME280;67585;44.802;10.332;2024-02-15T12:16:41;101761.31;;;17.04;48.25
78121;BME280;67585;44.802;10.332;2024-02-15T12:19:25;101763.38;;;16.10;49.35
78121;BME280;67585;44.802;10.332;2024-02-15T12:21:51;101751.22;;;15.60;50.91
78121;BME280;67585;44.802;10.332;2024-02-15T12:24:17;101767.97;;;15.42;51.09
78121;BME280;67585;44.802;10.332;2024-02-15T12:26:46;101743.56;;;15.47;50.92
78121;BME280;67585;44.802;10.332;2024-02-15T12:29:19;101748.28;;;15.24;51.42
78121;BME280;67585;44.802;10.332;2024-02-15T12:31:44;101759.91;;;15.57;51.11
78121;BME280;67585;44.802;10.332;2024-02-15T12:34:10;101752.16;;;15.33;51.66
78121;BME280;67585;44.802;10.332;2024-02-15T12:36:37;101756.63;;;15.60;52.03
78121;BME280;67585;44.802;10.332;2024-02-15T12:39:04;101741.63;;;16.00;51.53
78121;BME280;67585;44.802;10.332;2024-02-15T12:41:39;101743.63;;;15.67;51.85
78121;BME280;67585;44.802;10.332;2024-02-15T12:44:08;101733.91;;;15.71;52.11
78121;BME280;67585;44.802;10.332;2024-02-15T12:46:35;101709.81;;;16.11;51.28
78121;BME280;67585;44.802;10.332;2024-02-15T12:49:17;101702.53;;;16.32;50.16
78121;BME280;67585;44.802;10.332;2024-02-15T12:51:54;101709.06;;;16.82;48.56
78121;BME280;67585;44.802;10.332;2024-02-15T12:54:20;101716.13;;;16.73;48.46
78121;BME280;67585;44.802;10.332;2024-02-15T12:56:48;101705.25;;;16.47;49.08
78121;BME280;67585;44.802;10.332;2024-02-15T12:59:14;101704.16;;;16.33;49.52
78121;BME280;67585;44.802;10.332;2024-02-15T13:01:40;101691.91;;;16.20;48.93
78121;BME280;67585;44.802;10.332;2024-02-15T13:04:05;101711.22;;;16.59;50.12